createdAt,value
2022-12-18T00:02:16.203Z,19.90
2022-12-18T00:04:43.070Z,19.90
2022-12-18T00:07:10.195Z,19.80
2022-12-18T00:09:40.126Z,19.80
2022-12-18T00:14:43.193Z,19.80
2022-12-18T00:17:10.196Z,19.70
2022-12-18T00:19:37.074Z,19.80
2022-12-18T00:22:04.037Z,19.70
2022-12-18T00:24:30.928Z,19.80
2022-12-18T00:26:57.763Z,19.80
2022-12-18T00:29:24.653Z,19.70
2022-12-18T00:31:51.533Z,19.70
2022-12-18T00:34:18.550Z,19.70
2022-12-18T00:36:45.408Z,19.70
2022-12-18T00:39:13.238Z,19.70
2022-12-18T00:41:59.008Z,19.70
2022-12-18T00:44:26.078Z,19.70
2022-12-18T00:46:52.922Z,19.60
2022-12-18T00:49:20.977Z,19.60
2022-12-18T00:51:48.503Z,19.60
2022-12-18T00:54:16.067Z,19.60
2022-12-18T00:56:49.465Z,19.60
2022-12-18T00:59:18.367Z,19.60
2022-12-18T01:01:45.951Z,19.60
2022-12-18T01:04:13.005Z,19.60
2022-12-18T01:06:39.904Z,19.50
2022-12-18T01:09:08.420Z,19.50
2022-12-18T01:11:37.219Z,19.40
2022-12-18T01:14:05.204Z,19.40
2022-12-18T01:16:32.139Z,19.40
2022-12-18T01:18:59.085Z,19.30
2022-12-18T01:21:27.722Z,19.30
2022-12-18T01:23:56.096Z,19.30
2022-12-18T01:26:25.263Z,19.30
2022-12-18T01:28:52.449Z,19.30
2022-12-18T01:31:23.117Z,19.20
2022-12-18T01:33:50.987Z,19.20
2022-12-18T01:36:39.902Z,19.20
2022-12-18T01:39:14.115Z,19.20
2022-12-18T01:42:01.923Z,19.10
2022-12-18T01:45:03.053Z,19.10
2022-12-18T01:48:05.772Z,19.10
2022-12-18T01:50:51.170Z,19.10
2022-12-18T01:53:21.220Z,19.00
2022-12-18T01:55:51.218Z,18.90
2022-12-18T01:58:18.727Z,19.00
2022-12-18T02:00:45.811Z,18.90
2022-12-18T02:03:13.310Z,18.90
2022-12-18T02:05:50.258Z,18.90
2022-12-18T02:08:33.921Z,18.90
2022-12-18T02:11:23.470Z,18.90
2022-12-18T02:14:38.047Z,18.80
2022-12-18T02:17:12.696Z,18.80
2022-12-18T02:19:39.461Z,18.80
2022-12-18T02:22:37.909Z,18.80
2022-12-18T02:25:40.316Z,18.80
2022-12-18T02:28:10.912Z,18.80
2022-12-18T02:30:39.189Z,18.70
2022-12-18T02:33:08.191Z,18.70
2022-12-18T02:35:35.595Z,18.70
2022-12-18T02:38:04.475Z,18.70
2022-12-18T02:40:36.124Z,18.70
2022-12-18T02:43:14.511Z,18.70
2022-12-18T02:45:56.818Z,18.70
2022-12-18T02:48:29.352Z,18.70
2022-12-18T02:51:08.053Z,18.60
2022-12-18T02:53:50.195Z,18.60
2022-12-18T02:56:23.000Z,18.60
2022-12-18T02:59:05.439Z,18.60
2022-12-18T03:01:54.728Z,18.50
2022-12-18T03:04:40.920Z,18.50
2022-12-18T03:07:12.861Z,18.50
2022-12-18T03:09:43.809Z,18.50
2022-12-18T03:12:26.043Z,18.50
2022-12-18T03:15:17.225Z,18.50
2022-12-18T03:17:54.018Z,18.40
2022-12-18T03:20:23.023Z,18.40
2022-12-18T03:22:54.104Z,18.30
2022-12-18T03:25:21.663Z,18.30
2022-12-18T03:27:51.127Z,18.30
2022-12-18T03:30:20.912Z,18.30
2022-12-18T03:33:00.495Z,18.30
2022-12-18T03:35:33.155Z,18.40
2022-12-18T03:38:00.053Z,18.30
2022-12-18T03:40:33.038Z,18.30
2022-12-18T03:43:04.891Z,18.30
2022-12-18T03:45:39.520Z,18.30
2022-12-18T03:48:16.802Z,18.20
2022-12-18T03:51:19.515Z,18.30
2022-12-18T03:53:54.961Z,18.20
2022-12-18T03:56:29.859Z,18.20
2022-12-18T03:58:58.023Z,18.10
2022-12-18T04:01:33.219Z,18.10
2022-12-18T04:04:02.225Z,18.10
2022-12-18T04:06:36.103Z,18.10
2022-12-18T04:09:03.505Z,18.10
2022-12-18T04:11:32.515Z,18.00
2022-12-18T04:14:02.717Z,18.00
2022-12-18T04:16:32.819Z,17.90
2022-12-18T04:19:02.673Z,17.90
2022-12-18T04:21:34.258Z,17.90
2022-12-18T04:24:01.238Z,17.90
2022-12-18T04:26:29.083Z,17.90
2022-12-18T04:29:15.952Z,17.90
2022-12-18T04:31:43.200Z,17.90
2022-12-18T04:34:10.405Z,17.90
2022-12-18T04:36:43.545Z,17.80
2022-12-18T04:39:10.563Z,17.90
2022-12-18T04:41:37.583Z,17.80
2022-12-18T04:44:06.064Z,17.80
2022-12-18T04:46:32.965Z,17.80
2022-12-18T04:48:59.854Z,17.80
2022-12-18T04:51:27.020Z,17.80
2022-12-18T04:53:54.480Z,17.80
2022-12-18T04:56:21.744Z,17.80
2022-12-18T04:58:48.667Z,17.80
2022-12-18T05:01:17.496Z,17.70
2022-12-18T05:03:45.530Z,17.70
2022-12-18T05:06:12.543Z,17.70
2022-12-18T05:08:39.533Z,17.70
2022-12-18T05:11:11.973Z,17.70
2022-12-18T05:13:39.539Z,17.70
2022-12-18T05:16:07.387Z,17.70
2022-12-18T05:18:34.731Z,17.60
2022-12-18T05:21:01.773Z,17.60
2022-12-18T05:23:29.046Z,17.60
2022-12-18T05:25:59.008Z,17.60
2022-12-18T05:28:28.069Z,17.60
2022-12-18T05:31:03.260Z,17.60
2022-12-18T05:33:32.764Z,17.60
2022-12-18T05:36:00.180Z,17.50
2022-12-18T05:38:28.279Z,17.50
2022-12-18T05:40:55.444Z,17.40
2022-12-18T05:43:23.202Z,17.40
2022-12-18T05:45:50.521Z,17.40
2022-12-18T05:48:17.959Z,17.40
2022-12-18T05:50:48.893Z,17.40
2022-12-18T05:53:17.939Z,17.40
2022-12-18T05:55:45.301Z,17.40
2022-12-18T05:58:13.851Z,17.30
2022-12-18T06:00:42.363Z,17.40
2022-12-18T06:03:10.767Z,17.30
2022-12-18T06:05:43.372Z,17.30
2022-12-18T06:08:10.816Z,17.30
2022-12-18T06:10:37.939Z,17.30
2022-12-18T06:13:05.390Z,17.30
2022-12-18T06:15:32.298Z,17.20
2022-12-18T06:17:59.303Z,17.20
2022-12-18T06:20:31.793Z,17.30
2022-12-18T06:23:00.816Z,17.20
2022-12-18T06:25:27.709Z,17.20
2022-12-18T06:27:54.755Z,17.20
2022-12-18T06:30:21.686Z,17.20
2022-12-18T06:32:54.636Z,17.20
2022-12-18T06:35:23.755Z,17.20
2022-12-18T06:37:50.708Z,17.20
2022-12-18T06:40:17.815Z,17.20
2022-12-18T06:42:44.692Z,17.10
2022-12-18T06:45:12.471Z,17.10
2022-12-18T06:47:39.374Z,17.10
2022-12-18T06:50:06.808Z,17.10
2022-12-18T06:52:34.520Z,17.10
2022-12-18T06:55:01.458Z,17.10
2022-12-18T06:57:28.429Z,17.10
2022-12-18T06:59:55.475Z,17.00
2022-12-18T07:02:22.360Z,17.00
2022-12-18T07:04:50.319Z,17.00
2022-12-18T07:07:17.235Z,17.10
2022-12-18T07:09:44.145Z,17.10
2022-12-18T07:12:11.010Z,17.00
2022-12-18T07:14:37.916Z,17.00
2022-12-18T07:17:04.796Z,17.00
2022-12-18T07:19:33.450Z,17.00
2022-12-18T07:22:00.407Z,17.10
2022-12-18T07:24:27.484Z,17.00
2022-12-18T07:26:54.329Z,17.00
2022-12-18T07:29:22.007Z,17.10
2022-12-18T07:31:48.877Z,17.00
2022-12-18T07:34:16.359Z,17.00
2022-12-18T07:36:43.597Z,17.00
2022-12-18T07:39:12.365Z,17.00
2022-12-18T07:41:45.200Z,17.10
2022-12-18T07:44:16.304Z,17.00
2022-12-18T07:46:43.186Z,17.00
2022-12-18T07:49:10.009Z,17.00
2022-12-18T07:51:36.842Z,17.00
2022-12-18T07:54:03.785Z,17.00
2022-12-18T07:56:31.534Z,17.10
2022-12-18T07:58:59.818Z,17.00
2022-12-18T08:01:26.893Z,17.00
2022-12-18T08:03:54.090Z,16.90
2022-12-18T08:06:22.534Z,16.80
2022-12-18T08:08:55.382Z,16.80
2022-12-18T08:11:23.600Z,16.80
2022-12-18T08:13:50.451Z,16.80
2022-12-18T08:16:17.757Z,16.80
2022-12-18T08:18:44.796Z,16.90
2022-12-18T08:21:17.310Z,16.90
2022-12-18T08:23:44.441Z,16.90
2022-12-18T08:26:12.693Z,17.00
2022-12-18T08:28:40.087Z,17.10
2022-12-18T08:31:07.557Z,17.20
2022-12-18T08:33:36.170Z,17.20
2022-12-18T08:36:04.395Z,17.30
2022-12-18T08:38:32.309Z,17.40
2022-12-18T08:41:10.188Z,17.50
2022-12-18T08:43:55.725Z,17.60
2022-12-18T08:46:24.596Z,17.70
2022-12-18T08:48:52.397Z,17.80
2022-12-18T08:51:19.772Z,17.80
2022-12-18T08:53:47.190Z,17.90
2022-12-18T08:56:15.389Z,18.00
2022-12-18T08:58:42.744Z,18.10
2022-12-18T09:01:11.846Z,18.20
2022-12-18T09:03:39.870Z,18.30
2022-12-18T09:06:07.602Z,18.30
2022-12-18T09:08:34.793Z,18.40
2022-12-18T09:11:01.754Z,18.50
2022-12-18T09:13:28.823Z,18.60
2022-12-18T09:15:56.529Z,18.60
2022-12-18T09:18:24.721Z,18.70
2022-12-18T09:20:53.390Z,18.80
2022-12-18T09:23:20.939Z,18.90
2022-12-18T09:25:47.948Z,19.00
2022-12-18T09:28:18.268Z,19.00
2022-12-18T09:30:47.897Z,19.10
2022-12-18T09:33:15.183Z,19.10
2022-12-18T09:35:44.253Z,19.10
2022-12-18T09:38:16.826Z,19.10
2022-12-18T09:40:53.150Z,19.10
2022-12-18T09:43:24.011Z,19.10
2022-12-18T09:45:56.443Z,19.00
2022-12-18T09:48:29.559Z,19.00
2022-12-18T09:51:01.967Z,19.00
2022-12-18T09:53:32.678Z,19.00
2022-12-18T09:56:01.606Z,19.00
2022-12-18T09:58:37.436Z,19.00
2022-12-18T10:01:12.165Z,19.00
2022-12-18T10:03:39.058Z,19.10
2022-12-18T10:06:15.463Z,19.10
2022-12-18T10:08:52.864Z,19.00
2022-12-18T10:11:46.754Z,19.10
2022-12-18T10:14:32.087Z,19.10
2022-12-18T10:17:01.984Z,19.10
2022-12-18T10:19:50.329Z,19.10
2022-12-18T10:22:45.538Z,19.20
2022-12-18T10:25:18.495Z,19.20
2022-12-18T10:27:45.810Z,19.20
2022-12-18T10:30:17.751Z,19.20
2022-12-18T10:32:44.612Z,19.30
2022-12-18T10:35:26.754Z,19.40
2022-12-18T10:38:17.166Z,19.50
2022-12-18T10:41:04.588Z,19.60
2022-12-18T10:43:39.605Z,19.70
2022-12-18T10:46:09.690Z,19.70
2022-12-18T10:48:48.344Z,19.80
2022-12-18T10:51:41.472Z,19.80
2022-12-18T10:54:17.206Z,19.90
2022-12-18T10:56:44.815Z,19.90
2022-12-18T10:59:15.595Z,19.90
2022-12-18T11:01:57.002Z,19.90
2022-12-18T11:04:29.683Z,19.90
2022-12-18T11:07:04.485Z,19.90
2022-12-18T11:09:33.251Z,19.90
2022-12-18T11:12:02.992Z,19.90
2022-12-18T11:14:57.037Z,19.90
2022-12-18T11:17:30.312Z,19.90
2022-12-18T11:20:22.560Z,19.90
2022-12-18T11:23:01.055Z,19.80
2022-12-18T11:25:32.562Z,19.80
2022-12-18T11:28:23.374Z,19.70
2022-12-18T11:30:50.203Z,19.70
2022-12-18T11:33:21.536Z,19.70
2022-12-18T11:35:57.666Z,19.70
2022-12-18T11:38:33.668Z,19.80
2022-12-18T11:41:06.951Z,19.80
2022-12-18T11:43:45.112Z,19.80
2022-12-18T11:46:44.718Z,19.80
2022-12-18T11:49:21.220Z,19.80
2022-12-18T11:51:54.270Z,19.80
2022-12-18T11:54:21.200Z,19.80
2022-12-18T11:56:57.241Z,19.80
2022-12-18T11:59:36.059Z,19.80
2022-12-18T12:02:44.479Z,19.80
2022-12-18T12:05:17.571Z,19.90
2022-12-18T12:08:06.194Z,19.80
2022-12-18T12:10:50.791Z,19.80
2022-12-18T12:13:32.549Z,19.80
2022-12-18T12:16:14.436Z,19.80
2022-12-18T12:19:00.043Z,19.80
2022-12-18T12:21:43.611Z,19.80
2022-12-18T12:24:40.573Z,19.80
2022-12-18T12:27:13.366Z,19.80
2022-12-18T12:30:01.804Z,19.80
2022-12-18T12:32:47.706Z,19.70
2022-12-18T12:35:35.354Z,19.70
2022-12-18T12:38:19.582Z,19.70
2022-12-18T12:41:02.450Z,19.70
2022-12-18T12:43:37.494Z,19.80
2022-12-18T12:46:13.361Z,19.70
2022-12-18T12:48:58.182Z,19.70
2022-12-18T12:51:26.767Z,19.70
2022-12-18T12:53:55.174Z,19.70
2022-12-18T12:56:22.646Z,19.70
2022-12-18T12:59:04.456Z,19.70
2022-12-18T13:01:48.407Z,19.70
2022-12-18T13:04:29.008Z,19.70
2022-12-18T13:07:21.051Z,19.70
2022-12-18T13:10:27.095Z,19.70
2022-12-18T13:13:11.590Z,19.80
2022-12-18T13:15:40.722Z,19.80
2022-12-18T13:18:10.289Z,19.70
2022-12-18T13:20:39.528Z,19.70
2022-12-18T13:23:24.949Z,19.70
2022-12-18T13:25:53.299Z,19.80
2022-12-18T13:28:51.110Z,19.70
2022-12-18T13:31:40.706Z,19.70
2022-12-18T13:34:29.427Z,19.70
2022-12-18T13:37:18.707Z,19.70
2022-12-18T13:39:46.148Z,19.60
2022-12-18T13:42:34.251Z,19.60
2022-12-18T13:45:01.325Z,19.60
2022-12-18T13:47:36.392Z,19.60
2022-12-18T13:50:11.525Z,19.60
2022-12-18T13:52:40.572Z,19.60
2022-12-18T13:55:14.927Z,19.60
2022-12-18T13:57:41.825Z,19.50
2022-12-18T14:00:18.173Z,19.50
2022-12-18T14:02:46.688Z,19.50
2022-12-18T14:05:34.292Z,19.50
2022-12-18T14:08:09.859Z,19.50
2022-12-18T14:10:48.426Z,19.50
2022-12-18T14:13:28.971Z,19.40
2022-12-18T14:15:57.315Z,19.50
2022-12-18T14:18:29.283Z,19.50
2022-12-18T14:20:58.791Z,19.50
2022-12-18T14:23:40.814Z,19.50
2022-12-18T14:26:30.972Z,19.50
2022-12-18T14:29:01.970Z,19.40
2022-12-18T14:31:30.950Z,19.40
2022-12-18T14:33:57.939Z,19.40
2022-12-18T14:36:27.348Z,19.40
2022-12-18T14:38:54.891Z,19.40
2022-12-18T14:41:22.854Z,19.30
2022-12-18T14:43:51.716Z,19.30
2022-12-18T14:46:33.940Z,19.30
2022-12-18T14:49:30.823Z,19.30
2022-12-18T14:52:08.223Z,19.40
2022-12-18T14:54:36.707Z,19.40
2022-12-18T14:57:27.442Z,19.50
2022-12-18T14:59:54.389Z,19.50
2022-12-18T15:02:24.303Z,19.50
2022-12-18T15:05:19.056Z,19.60
2022-12-18T15:07:47.027Z,19.70
2022-12-18T15:10:35.130Z,19.70
2022-12-18T15:13:03.444Z,19.80
2022-12-18T15:15:40.282Z,19.80
2022-12-18T15:18:11.289Z,19.90
2022-12-18T15:20:44.500Z,20.00
2022-12-18T15:23:22.981Z,20.00
2022-12-18T15:26:07.007Z,20.00
2022-12-18T15:28:39.040Z,20.10
2022-12-18T15:31:10.052Z,20.10
2022-12-18T15:33:42.466Z,20.10
2022-12-18T15:36:11.806Z,20.10
2022-12-18T15:38:38.726Z,20.20
2022-12-18T15:41:08.948Z,20.20
2022-12-18T15:43:40.506Z,20.20
2022-12-18T15:46:14.704Z,20.30
2022-12-18T15:48:47.318Z,20.30
2022-12-18T15:51:28.629Z,20.40
2022-12-18T15:53:57.108Z,20.40
2022-12-18T15:56:42.463Z,20.40
2022-12-18T15:59:13.033Z,20.40
2022-12-18T16:01:42.833Z,20.40
2022-12-18T16:04:12.983Z,20.40
2022-12-18T16:07:05.374Z,20.50
2022-12-18T16:09:27.142Z,20.50
2022-12-18T16:11:54.129Z,20.60
2022-12-18T16:14:23.976Z,20.50
2022-12-18T16:16:53.668Z,20.60
2022-12-18T16:19:22.211Z,20.60
2022-12-18T16:21:49.779Z,20.60
2022-12-18T16:24:18.210Z,20.60
2022-12-18T16:26:45.106Z,20.60
2022-12-18T16:29:12.215Z,20.60
2022-12-18T16:31:39.084Z,20.70
2022-12-18T16:34:28.807Z,20.70
2022-12-18T16:37:03.147Z,20.70
2022-12-18T16:39:32.975Z,20.70
2022-12-18T16:41:59.971Z,20.70
2022-12-18T16:44:28.779Z,20.70
2022-12-18T16:46:55.676Z,20.70
2022-12-18T16:49:22.726Z,20.70
2022-12-18T16:51:49.526Z,20.70
2022-12-18T16:54:19.054Z,20.70
2022-12-18T16:56:49.827Z,20.70
2022-12-18T16:59:16.994Z,20.80
2022-12-18T17:01:44.925Z,20.70
2022-12-18T17:04:11.978Z,20.70
2022-12-18T17:06:42.536Z,20.70
2022-12-18T17:09:12.577Z,20.80
2022-12-18T17:11:39.429Z,20.80
2022-12-18T17:14:13.436Z,20.80
2022-12-18T17:16:40.334Z,20.80
2022-12-18T17:19:10.957Z,20.70
2022-12-18T17:21:42.470Z,20.70
2022-12-18T17:24:10.322Z,20.70
2022-12-18T17:26:37.628Z,20.70
2022-12-18T17:29:05.167Z,20.70
2022-12-18T17:31:32.531Z,20.70
2022-12-18T17:34:01.155Z,20.70
2022-12-18T17:36:32.270Z,20.70
2022-12-18T17:39:00.904Z,20.70
2022-12-18T17:41:29.627Z,20.70
2022-12-18T17:44:02.581Z,20.70
2022-12-18T17:46:31.424Z,20.70
2022-12-18T17:48:59.535Z,20.70
2022-12-18T17:51:27.219Z,20.70
2022-12-18T17:53:54.255Z,20.70
2022-12-18T17:56:23.210Z,20.70
2022-12-18T17:58:50.843Z,20.70
2022-12-18T18:01:20.386Z,20.70
2022-12-18T18:03:49.207Z,20.70
2022-12-18T18:06:20.308Z,20.70
2022-12-18T18:08:47.279Z,20.70
2022-12-18T18:11:37.539Z,20.70
2022-12-18T18:14:07.892Z,20.70
2022-12-18T18:16:40.490Z,20.60
2022-12-18T18:19:10.935Z,20.70
2022-12-18T18:21:42.643Z,20.60
2022-12-18T18:24:11.587Z,20.70
2022-12-18T18:26:41.467Z,20.60
2022-12-18T18:29:09.028Z,20.60
2022-12-18T18:31:40.721Z,20.60
2022-12-18T18:34:08.982Z,20.60
2022-12-18T18:36:35.903Z,20.60
2022-12-18T18:39:03.086Z,20.60
2022-12-18T18:41:30.605Z,20.60
2022-12-18T18:43:58.395Z,20.60
2022-12-18T18:46:25.989Z,20.60
2022-12-18T18:48:52.965Z,20.60
2022-12-18T18:51:21.433Z,20.60
2022-12-18T18:53:51.079Z,20.60
2022-12-18T18:57:04.170Z,20.50
2022-12-18T18:59:09.828Z,20.50
2022-12-18T19:01:36.823Z,20.50
2022-12-18T19:04:05.199Z,20.50
2022-12-18T19:06:32.103Z,20.50
2022-12-18T19:09:02.083Z,20.50
2022-12-18T19:11:47.548Z,20.40
2022-12-18T19:14:15.350Z,20.40
2022-12-18T19:16:43.784Z,20.40
2022-12-18T19:19:11.374Z,20.40
2022-12-18T19:21:38.315Z,20.40
2022-12-18T19:24:05.932Z,20.40
2022-12-18T19:26:32.794Z,20.40
2022-12-18T19:29:07.560Z,20.40
2022-12-18T19:31:36.512Z,20.40
2022-12-18T19:34:06.743Z,20.40
2022-12-18T19:36:36.831Z,20.40
2022-12-18T19:39:15.533Z,20.40
2022-12-18T19:41:42.783Z,20.30
2022-12-18T19:44:15.315Z,20.30
2022-12-18T19:46:42.979Z,20.30
2022-12-18T19:49:10.657Z,20.30
2022-12-18T19:51:38.495Z,20.30
2022-12-18T19:54:05.832Z,20.30
2022-12-18T19:56:34.421Z,20.30
2022-12-18T19:59:02.574Z,20.30
2022-12-18T20:01:30.086Z,20.30
2022-12-18T20:03:58.307Z,20.20
2022-12-18T20:06:28.827Z,20.20
2022-12-18T20:09:00.543Z,20.20
2022-12-18T20:11:29.443Z,20.20
2022-12-18T20:13:56.910Z,20.20
2022-12-18T20:16:23.819Z,20.10
2022-12-18T20:18:50.802Z,20.10
2022-12-18T20:21:20.540Z,20.10
2022-12-18T20:23:47.401Z,20.10
2022-12-18T20:26:14.427Z,20.10
2022-12-18T20:28:42.287Z,20.10
2022-12-18T20:31:10.494Z,20.00
2022-12-18T20:33:41.251Z,20.00
2022-12-18T20:36:12.821Z,20.00
2022-12-18T20:38:39.794Z,20.00
2022-12-18T20:41:12.493Z,20.00
2022-12-18T20:43:40.117Z,20.00
2022-12-18T20:46:09.483Z,20.00
2022-12-18T20:48:36.587Z,20.00
2022-12-18T20:51:11.267Z,20.00
2022-12-18T20:53:40.358Z,19.90
2022-12-18T20:56:30.626Z,19.90
2022-12-18T20:58:58.453Z,19.90
2022-12-18T21:01:26.150Z,19.80
2022-12-18T21:03:53.269Z,19.90
2022-12-18T21:06:21.864Z,19.80
2022-12-18T21:08:49.458Z,19.80
2022-12-18T21:11:40.804Z,19.80
2022-12-18T21:14:16.841Z,19.80
2022-12-18T21:16:44.327Z,19.80
2022-12-18T21:19:12.920Z,19.80
2022-12-18T21:21:40.329Z,19.80
2022-12-18T21:24:08.015Z,19.80
2022-12-18T21:26:36.534Z,19.80
2022-12-18T21:29:15.821Z,19.80
2022-12-18T21:31:43.720Z,19.80
2022-12-18T21:34:16.098Z,19.80
2022-12-18T21:36:43.069Z,19.70
2022-12-18T21:39:10.177Z,19.70
2022-12-18T21:41:55.675Z,19.70
2022-12-18T21:44:23.891Z,19.70
2022-12-18T21:46:56.780Z,19.70
2022-12-18T21:49:27.073Z,19.70
2022-12-18T21:51:56.200Z,19.70
2022-12-18T21:54:23.675Z,19.70
2022-12-18T21:56:52.090Z,19.70
2022-12-18T21:59:39.895Z,19.70
2022-12-18T22:02:16.103Z,19.70
2022-12-18T22:04:43.893Z,19.70
2022-12-18T22:07:11.373Z,19.60
2022-12-18T22:09:38.390Z,19.60
2022-12-18T22:12:05.756Z,19.60
2022-12-18T22:14:32.726Z,19.60
2022-12-18T22:16:59.625Z,19.60
2022-12-18T22:19:26.784Z,19.60
2022-12-18T22:21:54.126Z,19.60
2022-12-18T22:24:25.827Z,19.60
2022-12-18T22:26:59.532Z,19.60
2022-12-18T22:29:47.340Z,19.60
2022-12-18T22:32:16.950Z,19.60
2022-12-18T22:35:04.550Z,19.60
2022-12-18T22:37:34.229Z,19.50
2022-12-18T22:40:02.899Z,19.50
2022-12-18T22:42:30.833Z,19.50
2022-12-18T22:44:57.784Z,19.50
2022-12-18T22:47:29.433Z,19.40
2022-12-18T22:49:57.230Z,19.40
2022-12-18T22:52:25.059Z,19.40
2022-12-18T22:54:53.608Z,19.40
2022-12-18T22:57:22.023Z,19.50
2022-12-18T22:59:52.145Z,19.40
2022-12-18T23:02:19.682Z,19.40
2022-12-18T23:04:47.676Z,19.40
2022-12-18T23:07:15.289Z,19.40
2022-12-18T23:09:42.340Z,19.40
2022-12-18T23:12:15.391Z,19.40
2022-12-18T23:14:42.619Z,19.40
2022-12-18T23:17:09.615Z,19.40
2022-12-18T23:19:36.566Z,19.40
2022-12-18T23:22:07.254Z,19.40
2022-12-18T23:24:37.020Z,19.40
2022-12-18T23:27:04.834Z,19.30
2022-12-18T23:29:34.238Z,19.30
2022-12-18T23:32:01.077Z,19.30
2022-12-18T23:34:27.904Z,19.30
2022-12-18T23:36:56.214Z,19.20
2022-12-18T23:39:29.467Z,19.20
2022-12-18T23:42:00.747Z,19.20
2022-12-18T23:44:28.181Z,19.10
2022-12-18T23:46:55.523Z,19.10
2022-12-18T23:49:22.682Z,19.10
2022-12-18T23:51:49.641Z,19.10
2022-12-18T23:54:16.472Z,19.10
2022-12-18T23:56:43.302Z,19.00
2022-12-18T23:59:10.335Z,19.00
